createdAt,value
2023-05-24T00:00:06.360Z,69.18
2023-05-24T00:02:33.198Z,69.32
2023-05-24T00:05:01.455Z,69.28
2023-05-24T00:07:28.265Z,69.28
2023-05-24T00:09:55.083Z,69.21
2023-05-24T00:12:21.894Z,69.76
2023-05-24T00:14:48.526Z,69.78
2023-05-24T00:17:15.175Z,69.91
2023-05-24T00:19:42.814Z,69.89
2023-05-24T00:22:09.404Z,69.92
2023-05-24T00:24:36.214Z,69.99
2023-05-24T00:27:02.968Z,69.93
2023-05-24T00:29:32.066Z,70.06
2023-05-24T00:31:59.323Z,70.02
2023-05-24T00:34:25.980Z,70.00
2023-05-24T00:36:52.594Z,70.17
2023-05-24T00:39:19.741Z,70.50
2023-05-24T00:41:46.346Z,70.49
2023-05-24T00:44:13.122Z,70.35
2023-05-24T00:46:39.968Z,70.19
2023-05-24T00:49:07.140Z,70.25
2023-05-24T00:51:34.992Z,70.30
2023-05-24T00:54:02.019Z,70.41
2023-05-24T00:56:29.167Z,70.31
2023-05-24T00:58:56.400Z,70.45
2023-05-24T01:01:26.661Z,70.40
2023-05-24T01:03:54.821Z,70.59
2023-05-24T01:06:22.138Z,70.79
2023-05-24T01:09:03.342Z,70.76
2023-05-24T01:12:05.751Z,70.73
2023-05-24T01:15:05.102Z,70.46
2023-05-24T01:17:31.780Z,70.48
2023-05-24T01:20:06.962Z,70.49
2023-05-24T01:23:07.469Z,70.48
2023-05-24T01:26:01.976Z,70.42
2023-05-24T01:28:29.779Z,70.37
2023-05-24T01:30:56.600Z,70.42
2023-05-24T01:33:23.360Z,70.72
2023-05-24T01:35:50.074Z,70.76
2023-05-24T01:38:16.813Z,70.91
2023-05-24T01:40:44.589Z,71.10
2023-05-24T01:43:16.324Z,71.17
2023-05-24T01:46:06.397Z,71.10
2023-05-24T01:48:47.478Z,71.10
2023-05-24T01:51:18.744Z,71.38
2023-05-24T01:53:47.673Z,71.33
2023-05-24T01:56:17.245Z,71.37
2023-05-24T01:58:45.987Z,71.50
2023-05-24T02:01:16.010Z,71.56
2023-05-24T02:03:42.720Z,71.29
2023-05-24T02:06:10.987Z,71.54
2023-05-24T02:08:38.037Z,71.35
2023-05-24T02:11:04.723Z,71.55
2023-05-24T02:13:31.506Z,71.61
2023-05-24T02:15:58.370Z,71.59
2023-05-24T02:18:24.973Z,71.76
2023-05-24T02:20:51.682Z,71.90
2023-05-24T02:23:18.483Z,71.93
2023-05-24T02:25:45.122Z,71.90
2023-05-24T02:28:11.932Z,71.85
2023-05-24T02:30:38.704Z,72.05
2023-05-24T02:33:05.608Z,72.02
2023-05-24T02:35:33.873Z,72.12
2023-05-24T02:38:01.694Z,72.01
2023-05-24T02:40:28.410Z,72.17
2023-05-24T02:42:55.292Z,72.09
2023-05-24T02:45:25.428Z,72.17
2023-05-24T02:47:52.071Z,72.18
2023-05-24T02:50:18.981Z,72.10
2023-05-24T02:52:45.588Z,71.81
2023-05-24T02:55:12.203Z,72.01
2023-05-24T02:57:39.283Z,72.02
2023-05-24T03:00:11.087Z,71.88
2023-05-24T03:02:38.642Z,71.95
2023-05-24T03:05:06.252Z,72.11
2023-05-24T03:07:33.624Z,71.89
2023-05-24T03:10:00.559Z,72.02
2023-05-24T03:12:27.438Z,72.02
2023-05-24T03:14:54.325Z,72.15
2023-05-24T03:17:21.270Z,72.01
2023-05-24T03:19:48.105Z,72.10
2023-05-24T03:22:14.870Z,72.02
2023-05-24T03:24:41.456Z,72.20
2023-05-24T03:27:08.920Z,72.25
2023-05-24T03:29:35.780Z,72.49
2023-05-24T03:32:02.537Z,72.80
2023-05-24T03:34:30.409Z,72.85
2023-05-24T03:36:57.220Z,73.00
2023-05-24T03:39:23.825Z,73.37
2023-05-24T03:41:50.509Z,73.55
2023-05-24T03:44:17.394Z,73.61
2023-05-24T03:46:44.058Z,73.88
2023-05-24T03:49:11.020Z,74.09
2023-05-24T03:51:37.848Z,73.95
2023-05-24T03:54:04.533Z,74.17
2023-05-24T03:56:31.393Z,74.38
2023-05-24T03:59:00.771Z,74.59
2023-05-24T04:01:34.014Z,74.36
2023-05-24T04:04:02.351Z,74.46
2023-05-24T04:06:30.192Z,74.34
2023-05-24T04:08:58.380Z,74.42
2023-05-24T04:11:28.393Z,74.38
2023-05-24T04:13:56.045Z,74.61
2023-05-24T04:16:27.516Z,74.78
2023-05-24T04:18:58.044Z,74.83
2023-05-24T04:21:24.855Z,74.69
2023-05-24T04:23:51.604Z,74.86
2023-05-24T04:26:18.520Z,74.85
2023-05-24T04:28:48.660Z,74.75
2023-05-24T04:31:18.189Z,74.77
2023-05-24T04:33:44.952Z,74.66
2023-05-24T04:36:11.804Z,74.71
2023-05-24T04:38:39.663Z,74.76
2023-05-24T04:41:07.360Z,74.62
2023-05-24T04:43:34.834Z,74.73
2023-05-24T04:46:01.776Z,74.83
2023-05-24T04:48:28.611Z,75.02
2023-05-24T04:50:58.497Z,74.78
2023-05-24T04:53:25.808Z,75.00
2023-05-24T04:55:53.554Z,74.80
2023-05-24T04:58:20.251Z,75.00
2023-05-24T05:00:47.145Z,75.16
2023-05-24T05:03:14.409Z,75.19
2023-05-24T05:05:41.088Z,75.22
2023-05-24T05:08:07.955Z,75.11
2023-05-24T05:10:35.956Z,75.15
2023-05-24T05:13:02.603Z,74.96
2023-05-24T05:15:29.498Z,75.12
2023-05-24T05:17:56.459Z,75.13
2023-05-24T05:20:25.690Z,75.18
2023-05-24T05:22:52.407Z,74.99
2023-05-24T05:25:19.209Z,74.85
2023-05-24T05:27:45.828Z,74.75
2023-05-24T05:30:13.044Z,74.91
2023-05-24T05:32:40.212Z,74.79
2023-05-24T05:35:07.658Z,74.54
2023-05-24T05:37:34.335Z,74.14
2023-05-24T05:40:01.149Z,74.15
2023-05-24T05:42:27.856Z,73.89
2023-05-24T05:44:54.486Z,73.64
2023-05-24T05:47:21.156Z,73.19
2023-05-24T05:49:47.893Z,73.10
2023-05-24T05:52:14.628Z,72.72
2023-05-24T05:54:41.399Z,72.39
2023-05-24T05:57:10.701Z,72.30
2023-05-24T05:59:38.330Z,71.88
2023-05-24T06:02:06.999Z,71.77
2023-05-24T06:04:34.336Z,71.69
2023-05-24T06:07:01.066Z,71.36
2023-05-24T06:09:27.858Z,71.40
2023-05-24T06:11:55.009Z,70.52
2023-05-24T06:14:22.271Z,70.17
2023-05-24T06:16:49.568Z,69.35
2023-05-24T06:19:17.027Z,69.00
2023-05-24T06:21:48.290Z,68.61
2023-05-24T06:24:20.571Z,67.81
2023-05-24T06:26:48.513Z,66.79
2023-05-24T06:29:15.433Z,65.99
2023-05-24T06:31:43.780Z,65.67
2023-05-24T06:34:10.731Z,65.20
2023-05-24T06:36:41.512Z,64.75
2023-05-24T06:39:09.468Z,63.63
2023-05-24T06:41:37.494Z,62.81
2023-05-24T06:44:04.248Z,62.53
2023-05-24T06:46:31.596Z,61.21
2023-05-24T06:48:58.719Z,60.42
2023-05-24T06:51:25.439Z,59.27
2023-05-24T06:53:52.533Z,58.95
2023-05-24T06:56:19.416Z,58.35
2023-05-24T06:58:46.095Z,57.84
2023-05-24T07:01:13.151Z,56.92
2023-05-24T07:03:39.966Z,55.87
2023-05-24T07:06:09.988Z,55.21
2023-05-24T07:08:36.944Z,54.75
2023-05-24T07:11:03.950Z,54.58
2023-05-24T07:13:30.651Z,54.32
2023-05-24T07:18:24.514Z,53.04
2023-05-24T07:20:51.231Z,52.38
2023-05-24T07:23:18.337Z,51.79
2023-05-24T07:25:45.302Z,51.10
2023-05-24T07:28:12.084Z,50.61
2023-05-24T07:30:39.469Z,50.12
2023-05-24T07:33:06.252Z,49.51
2023-05-24T07:35:33.042Z,49.34
2023-05-24T07:37:59.838Z,48.90
2023-05-24T07:40:28.967Z,48.50
2023-05-24T07:42:56.162Z,48.31
2023-05-24T07:45:26.888Z,48.47
2023-05-24T07:47:56.029Z,47.90
2023-05-24T07:50:26.790Z,47.12
2023-05-24T07:52:53.696Z,46.71
2023-05-24T07:55:20.574Z,46.25
2023-05-24T07:57:47.758Z,46.48
2023-05-24T08:00:15.333Z,45.64
2023-05-24T08:02:42.750Z,45.25
2023-05-24T08:05:15.211Z,45.44
2023-05-24T08:07:42.327Z,45.11
2023-05-24T08:10:15.412Z,45.12
2023-05-24T08:12:42.867Z,45.24
2023-05-24T08:15:10.267Z,44.61
2023-05-24T08:17:38.887Z,44.52
2023-05-24T08:20:09.867Z,44.41
2023-05-24T08:22:37.731Z,43.90
2023-05-24T08:25:05.040Z,43.61
2023-05-24T08:27:31.918Z,43.28
2023-05-24T08:29:59.191Z,43.37
2023-05-24T08:32:25.924Z,43.49
2023-05-24T08:35:00.430Z,42.95
2023-05-24T08:37:33.472Z,42.01
2023-05-24T08:40:00.175Z,42.43
2023-05-24T08:42:28.809Z,41.60
2023-05-24T08:45:03.847Z,40.78
2023-05-24T08:47:32.467Z,40.87
2023-05-24T08:49:59.692Z,41.36
2023-05-24T08:52:28.328Z,41.08
2023-05-24T08:54:55.489Z,40.73
2023-05-24T08:57:22.636Z,40.46
2023-05-24T08:59:49.785Z,39.70
2023-05-24T09:02:17.649Z,39.56
2023-05-24T09:04:47.039Z,39.36
2023-05-24T09:07:14.979Z,40.50
2023-05-24T09:09:47.505Z,40.14
2023-05-24T09:12:35.666Z,40.26
2023-05-24T09:15:06.386Z,39.85
2023-05-24T09:17:34.544Z,39.04
2023-05-24T09:20:01.522Z,38.97
2023-05-24T09:22:30.620Z,38.24
2023-05-24T09:25:06.219Z,38.16
2023-05-24T09:27:35.082Z,37.98
2023-05-24T09:30:03.761Z,38.77
2023-05-24T09:32:31.538Z,37.54
2023-05-24T09:34:59.159Z,36.73
2023-05-24T09:37:32.232Z,36.55
2023-05-24T09:40:00.361Z,36.37
2023-05-24T09:42:28.759Z,36.53
2023-05-24T09:45:06.564Z,36.83
2023-05-24T09:47:37.694Z,36.43
2023-05-24T09:50:11.728Z,36.56
2023-05-24T09:52:38.772Z,36.49
2023-05-24T09:55:35.998Z,36.29
2023-05-24T09:58:12.968Z,35.93
2023-05-24T10:00:41.828Z,36.00
2023-05-24T10:03:15.255Z,35.92
2023-05-24T10:05:45.058Z,34.92
2023-05-24T10:08:12.704Z,34.83
2023-05-24T10:10:39.466Z,34.98
2023-05-24T10:13:06.219Z,35.51
2023-05-24T10:15:33.119Z,35.87
2023-05-24T10:18:01.867Z,35.19
2023-05-24T10:20:30.259Z,34.94
2023-05-24T10:23:02.085Z,34.75
2023-05-24T10:25:29.958Z,34.18
2023-05-24T10:28:07.486Z,34.85
2023-05-24T10:31:02.006Z,34.30
2023-05-24T10:33:31.538Z,34.83
2023-05-24T10:35:58.821Z,33.66
2023-05-24T10:38:29.052Z,33.40
2023-05-24T10:40:55.818Z,32.97
2023-05-24T10:43:22.829Z,32.36
2023-05-24T10:45:50.909Z,32.03
2023-05-24T10:48:32.040Z,32.23
2023-05-24T10:51:01.950Z,32.10
2023-05-24T10:53:28.815Z,32.11
2023-05-24T10:56:09.640Z,31.55
2023-05-24T10:58:54.896Z,31.21
2023-05-24T11:01:29.665Z,31.43
2023-05-24T11:04:15.865Z,31.07
2023-05-24T11:07:03.764Z,29.97
2023-05-24T11:09:31.861Z,30.52
2023-05-24T11:12:04.371Z,30.09
2023-05-24T11:14:32.432Z,30.20
2023-05-24T11:17:02.885Z,29.80
2023-05-24T11:19:54.137Z,29.70
2023-05-24T11:22:22.933Z,29.45
2023-05-24T11:24:51.737Z,29.44
2023-05-24T11:27:18.729Z,30.08
2023-05-24T11:29:47.417Z,29.58
2023-05-24T11:32:19.237Z,29.64
2023-05-24T11:34:49.746Z,29.20
2023-05-24T11:37:18.332Z,29.27
2023-05-24T11:39:52.645Z,29.09
2023-05-24T11:42:22.420Z,29.01
2023-05-24T11:44:50.381Z,29.80
2023-05-24T11:47:17.184Z,29.80
2023-05-24T11:49:43.784Z,29.02
2023-05-24T11:52:10.385Z,28.77
2023-05-24T11:54:39.182Z,28.52
2023-05-24T11:57:06.295Z,29.48
2023-05-24T11:59:33.210Z,29.02
2023-05-24T12:02:02.683Z,28.47
2023-05-24T12:04:30.530Z,28.06
2023-05-24T12:06:58.120Z,29.02
2023-05-24T12:09:25.912Z,28.95
2023-05-24T12:11:53.558Z,28.80
2023-05-24T12:14:24.179Z,28.25
2023-05-24T12:16:50.938Z,28.77
2023-05-24T12:19:31.781Z,28.43
2023-05-24T12:21:59.814Z,28.65
2023-05-24T12:24:27.679Z,28.25
2023-05-24T12:27:02.255Z,28.35
2023-05-24T12:29:40.907Z,28.67
2023-05-24T12:32:13.892Z,29.11
2023-05-24T12:34:43.250Z,28.68
2023-05-24T12:37:14.672Z,28.67
2023-05-24T12:39:43.353Z,28.63
2023-05-24T12:42:12.296Z,28.55
2023-05-24T12:44:39.835Z,28.52
2023-05-24T12:47:08.497Z,28.47
2023-05-24T12:49:35.609Z,28.05
2023-05-24T12:52:02.429Z,27.96
2023-05-24T12:54:29.525Z,28.05
2023-05-24T12:56:57.995Z,27.44
2023-05-24T12:59:27.552Z,27.42
2023-05-24T13:01:54.477Z,28.11
2023-05-24T13:04:23.132Z,27.62
2023-05-24T13:06:50.069Z,27.45
2023-05-24T13:09:23.283Z,26.97
2023-05-24T13:11:50.533Z,27.16
2023-05-24T13:14:18.374Z,27.24
2023-05-24T13:16:45.386Z,27.05
2023-05-24T13:19:12.569Z,26.57
2023-05-24T13:21:39.534Z,25.57
2023-05-24T13:24:07.011Z,29.55
2023-05-24T13:26:37.730Z,33.45
2023-05-24T13:31:37.719Z,38.19
2023-05-24T13:34:05.055Z,39.49
2023-05-24T13:36:31.783Z,40.26
2023-05-24T13:39:12.829Z,40.81
2023-05-24T13:41:42.536Z,42.14
2023-05-24T13:44:14.697Z,43.06
2023-05-24T13:46:42.354Z,43.18
2023-05-24T13:49:10.175Z,43.35
2023-05-24T13:51:37.435Z,44.11
2023-05-24T13:54:07.140Z,45.17
2023-05-24T13:56:34.535Z,45.69
2023-05-24T13:59:02.753Z,46.18
2023-05-24T14:01:29.588Z,46.75
2023-05-24T14:03:56.648Z,46.68
2023-05-24T14:06:23.383Z,46.78
2023-05-24T14:08:50.034Z,46.82
2023-05-24T14:11:16.710Z,46.95
2023-05-24T14:14:43.185Z,46.75
2023-05-24T14:16:31.235Z,46.84
2023-05-24T14:18:58.352Z,46.53
2023-05-24T14:21:27.122Z,46.81
2023-05-24T14:23:54.231Z,47.01
2023-05-24T14:26:23.576Z,46.87
2023-05-24T14:28:52.286Z,46.95
2023-05-24T14:31:20.483Z,46.92
2023-05-24T14:33:47.184Z,46.93
2023-05-24T14:36:13.781Z,46.78
2023-05-24T14:38:40.383Z,46.75
2023-05-24T14:41:07.180Z,46.82
2023-05-24T14:43:33.844Z,46.52
2023-05-24T14:46:00.686Z,46.43
2023-05-24T14:48:27.513Z,46.46
2023-05-24T14:50:54.192Z,46.37
2023-05-24T14:53:21.116Z,46.44
2023-05-24T14:55:48.010Z,46.31
2023-05-24T14:58:14.783Z,46.41
2023-05-24T15:00:48.922Z,46.57
2023-05-24T15:03:15.957Z,46.54
2023-05-24T15:05:43.121Z,46.48
2023-05-24T15:08:11.632Z,46.47
2023-05-24T15:10:39.439Z,46.26
2023-05-24T15:13:06.834Z,46.36
2023-05-24T15:15:33.755Z,46.18
2023-05-24T15:18:00.923Z,46.23
2023-05-24T15:20:28.623Z,46.29
2023-05-24T15:22:55.788Z,46.18
2023-05-24T15:25:22.758Z,46.60
2023-05-24T15:27:50.020Z,46.63
2023-05-24T15:30:19.254Z,46.56
2023-05-24T15:32:46.478Z,46.74
2023-05-24T15:35:13.787Z,47.25
2023-05-24T15:37:41.606Z,47.08
2023-05-24T15:40:10.576Z,47.75
2023-05-24T15:42:37.219Z,47.60
2023-05-24T15:45:04.172Z,47.65
2023-05-24T15:47:36.438Z,47.46
2023-05-24T15:50:03.475Z,47.34
2023-05-24T15:52:30.620Z,47.52
2023-05-24T15:54:57.211Z,47.36
2023-05-24T15:57:23.963Z,47.00
2023-05-24T15:59:50.843Z,47.11
2023-05-24T16:02:20.652Z,47.34
2023-05-24T16:04:47.872Z,47.44
2023-05-24T16:07:14.508Z,47.35
2023-05-24T16:09:41.143Z,47.25
2023-05-24T16:12:08.986Z,47.20
2023-05-24T16:14:35.624Z,47.14
2023-05-24T16:17:06.658Z,47.28
2023-05-24T16:19:33.716Z,47.35
2023-05-24T16:22:00.388Z,47.42
2023-05-24T16:24:27.956Z,47.33
2023-05-24T16:26:54.770Z,47.49
2023-05-24T16:29:21.486Z,47.47
2023-05-24T16:31:48.327Z,47.74
2023-05-24T16:34:15.463Z,47.87
2023-05-24T16:36:45.641Z,47.98
2023-05-24T16:39:12.316Z,48.34
2023-05-24T16:41:40.360Z,48.54
2023-05-24T16:44:07.311Z,48.73
2023-05-24T16:46:34.743Z,49.04
2023-05-24T16:49:03.504Z,49.26
2023-05-24T16:51:30.398Z,49.65
2023-05-24T16:53:57.088Z,50.23
2023-05-24T16:56:23.876Z,50.30
2023-05-24T16:58:51.296Z,50.54
2023-05-24T17:01:18.039Z,50.79
2023-05-24T17:03:45.100Z,50.87
2023-05-24T17:06:11.895Z,51.34
2023-05-24T17:08:38.606Z,51.84
2023-05-24T17:11:09.681Z,52.12
2023-05-24T17:13:36.566Z,52.44
2023-05-24T17:16:04.117Z,52.70
2023-05-24T17:18:31.183Z,52.88
2023-05-24T17:21:00.117Z,53.26
2023-05-24T17:23:28.269Z,53.67
2023-05-24T17:25:58.399Z,53.69
2023-05-24T17:28:30.034Z,53.97
2023-05-24T17:30:58.313Z,54.22
2023-05-24T17:33:26.775Z,54.39
2023-05-24T17:35:56.676Z,54.63
2023-05-24T17:38:25.114Z,54.98
2023-05-24T17:40:59.511Z,55.14
2023-05-24T17:43:32.989Z,55.36
2023-05-24T17:46:07.047Z,55.63
2023-05-24T17:48:34.504Z,55.48
2023-05-24T17:51:02.438Z,55.44
2023-05-24T17:53:32.304Z,55.93
2023-05-24T17:56:00.517Z,56.57
2023-05-24T17:58:28.593Z,56.98
2023-05-24T18:00:55.469Z,57.37
2023-05-24T18:03:22.228Z,57.63
2023-05-24T18:05:48.878Z,58.14
2023-05-24T18:08:15.910Z,58.51
2023-05-24T18:10:42.562Z,58.90
2023-05-24T18:13:09.663Z,58.98
2023-05-24T18:15:36.773Z,59.38
2023-05-24T18:18:03.638Z,58.87
2023-05-24T18:20:30.492Z,58.70
2023-05-24T18:22:57.294Z,58.91
2023-05-24T18:25:28.666Z,59.05
2023-05-24T18:27:55.340Z,59.26
2023-05-24T18:30:22.131Z,59.48
2023-05-24T18:33:04.334Z,59.71
2023-05-24T18:35:34.217Z,59.60
2023-05-24T18:38:01.083Z,59.77
2023-05-24T18:40:28.709Z,60.20
2023-05-24T18:42:55.374Z,60.12
2023-05-24T18:45:22.802Z,60.39
2023-05-24T18:48:11.136Z,60.64
2023-05-24T18:50:37.925Z,60.44
2023-05-24T18:53:04.879Z,60.68
2023-05-24T18:55:31.646Z,60.99
2023-05-24T18:57:58.822Z,61.19
2023-05-24T19:00:28.336Z,61.30
2023-05-24T19:02:56.254Z,61.17
2023-05-24T19:05:28.890Z,61.42
2023-05-24T19:07:55.666Z,61.23
2023-05-24T19:10:22.268Z,61.23
2023-05-24T19:12:49.305Z,61.36
2023-05-24T19:15:17.573Z,61.01
2023-05-24T19:17:46.764Z,61.26
2023-05-24T19:20:28.299Z,61.48
2023-05-24T19:22:56.155Z,61.64
2023-05-24T19:25:23.066Z,61.83
2023-05-24T19:30:26.805Z,62.13
2023-05-24T19:32:55.889Z,61.64
2023-05-24T19:35:22.787Z,61.67
2023-05-24T19:37:49.567Z,62.19
2023-05-24T19:40:16.324Z,61.96
2023-05-24T19:42:42.943Z,62.28
2023-05-24T19:45:10.040Z,62.13
2023-05-24T19:47:36.811Z,62.15
2023-05-24T19:50:03.580Z,62.13
2023-05-24T19:52:30.469Z,62.33
2023-05-24T19:54:57.382Z,62.36
2023-05-24T19:57:24.003Z,62.45
2023-05-24T19:59:50.909Z,62.57
2023-05-24T20:02:17.889Z,62.74
2023-05-24T20:04:44.492Z,62.92
2023-05-24T20:07:11.734Z,62.80
2023-05-24T20:09:38.621Z,63.11
2023-05-24T20:12:05.418Z,63.21
2023-05-24T20:14:32.322Z,63.21
2023-05-24T20:16:59.703Z,63.52
2023-05-24T20:19:29.105Z,63.86
2023-05-24T20:21:55.942Z,64.17
2023-05-24T20:24:23.177Z,63.94
2023-05-24T20:26:49.857Z,64.18
2023-05-24T20:29:16.774Z,64.16
2023-05-24T20:31:43.689Z,64.34
2023-05-24T20:34:10.458Z,64.36
2023-05-24T20:36:37.331Z,64.48
2023-05-24T20:39:04.210Z,64.18
2023-05-24T20:41:31.293Z,64.06
2023-05-24T20:43:58.025Z,64.36
2023-05-24T20:46:24.782Z,64.41
2023-05-24T20:48:51.658Z,64.45
2023-05-24T20:51:19.399Z,64.44
2023-05-24T20:53:46.854Z,64.49
2023-05-24T20:56:13.602Z,64.59
2023-05-24T20:58:41.439Z,64.76
2023-05-24T21:01:08.815Z,64.71
2023-05-24T21:03:35.865Z,64.74
2023-05-24T21:06:02.876Z,64.86
2023-05-24T21:08:29.534Z,64.97
2023-05-24T21:10:56.730Z,64.90
2023-05-24T21:13:25.429Z,65.30
2023-05-24T21:15:52.342Z,65.10
2023-05-24T21:18:19.102Z,65.59
2023-05-24T21:20:45.887Z,65.39
2023-05-24T21:23:12.578Z,65.74
2023-05-24T21:25:39.347Z,65.63
2023-05-24T21:28:06.058Z,65.67
2023-05-24T21:30:32.884Z,65.87
2023-05-24T21:32:59.710Z,65.84
2023-05-24T21:35:28.621Z,66.27
2023-05-24T21:37:59.333Z,66.70
2023-05-24T21:40:29.233Z,66.44
2023-05-24T21:42:55.904Z,66.49
2023-05-24T21:45:22.587Z,66.64
2023-05-24T21:47:49.519Z,66.36
2023-05-24T21:50:16.137Z,66.50
2023-05-24T21:52:42.835Z,66.50
2023-05-24T21:55:10.167Z,66.56
2023-05-24T21:57:36.872Z,66.67
2023-05-24T22:00:05.148Z,66.79
2023-05-24T22:02:32.218Z,66.72
2023-05-24T22:04:58.830Z,67.04
2023-05-24T22:07:25.778Z,67.16
2023-05-24T22:09:52.592Z,67.26
2023-05-24T22:12:19.205Z,67.40
2023-05-24T22:14:46.195Z,67.51
2023-05-24T22:17:14.395Z,67.14
2023-05-24T22:19:41.494Z,67.41
2023-05-24T22:22:08.823Z,67.11
2023-05-24T22:24:35.956Z,66.65
2023-05-24T22:27:02.640Z,66.93
2023-05-24T22:29:29.657Z,66.67
2023-05-24T22:31:56.568Z,67.10
2023-05-24T22:34:27.564Z,66.65
2023-05-24T22:36:54.902Z,66.89
2023-05-24T22:39:22.054Z,67.08
2023-05-24T22:41:48.880Z,67.25
2023-05-24T22:44:15.860Z,67.34
2023-05-24T22:46:42.872Z,67.29
2023-05-24T22:49:13.195Z,67.30
2023-05-24T22:51:44.619Z,67.45
2023-05-24T22:54:11.892Z,67.41
2023-05-24T22:56:39.177Z,67.58
2023-05-24T22:59:06.806Z,67.53
2023-05-24T23:01:33.890Z,67.98
2023-05-24T23:04:18.390Z,68.03
2023-05-24T23:06:47.133Z,67.81
2023-05-24T23:09:13.800Z,67.93
2023-05-24T23:11:40.622Z,67.98
2023-05-24T23:14:09.007Z,67.88
2023-05-24T23:16:45.262Z,68.02
2023-05-24T23:19:13.689Z,67.79
2023-05-24T23:21:42.170Z,67.88
2023-05-24T23:24:14.735Z,67.98
2023-05-24T23:26:42.101Z,68.04
2023-05-24T23:29:09.044Z,68.01
2023-05-24T23:31:36.068Z,68.23
2023-05-24T23:34:03.918Z,68.28
2023-05-24T23:36:30.539Z,68.27
2023-05-24T23:38:57.190Z,68.50
2023-05-24T23:41:23.877Z,68.56
2023-05-24T23:43:52.372Z,68.54
2023-05-24T23:46:19.508Z,68.57
2023-05-24T23:48:46.431Z,68.56
2023-05-24T23:51:13.072Z,68.86
2023-05-24T23:53:39.809Z,69.02
2023-05-24T23:56:06.797Z,68.86
2023-05-24T23:58:34.053Z,68.92
